LAN435 SAME-SCEL
Flight info
| Callsign | LAN435 |
|---|---|
| Flight time | 0h 35m |
| Altitude | 26000 |
| Route | UMKA2C UMKAL UMKA7C |
| Aircraft | A20N/M-SDE2E3FGHIRWXY/LB1 |
Departure
| Time | 2026-05-07 19:03 |
|---|---|
| Airport | Governor Francisco Gabrielli International Airport (SAME) |
Arrival
| Time | 2026-05-07 19:39 |
|---|---|
| Airport | Comodoro Arturo Merino Benítez International Airport (SCEL) |
| Time | Latitude | Longitude | Altitude | Speed | Heading |
|---|---|---|---|---|---|
| 2026-05-07 18:43 | -32.82802 | -68.79779 | 2309 ft | 0 kts | 269° |
| 2026-05-07 18:55 | -32.82802 | -68.79767 | 2309 ft | 3 kts | 269° |
| 2026-05-07 18:55 | -32.82802 | -68.79745 | 2309 ft | 3 kts | 269° |
| 2026-05-07 18:55 | -32.82802 | -68.79722 | 2309 ft | 3 kts | 254° |
| 2026-05-07 18:55 | -32.82792 | -68.79703 | 2312 ft | 3 kts | 212° |
| 2026-05-07 18:56 | -32.82774 | -68.79696 | 2309 ft | 2 kts | 178° |
| 2026-05-07 18:56 | -32.82772 | -68.79696 | 2309 ft | 0 kts | 178° |
| 2026-05-07 18:59 | -32.82812 | -68.79694 | 2318 ft | 13 kts | 178° |
| 2026-05-07 18:59 | -32.82906 | -68.79695 | 2318 ft | 13 kts | 166° |
| 2026-05-07 18:59 | -32.82943 | -68.79613 | 2313 ft | 12 kts | 122° |
| 2026-05-07 19:00 | -32.83006 | -68.79543 | 2318 ft | 13 kts | 140° |
| 2026-05-07 19:00 | -32.83116 | -68.79512 | 2316 ft | 20 kts | 181° |
| 2026-05-07 19:00 | -32.83253 | -68.79514 | 2312 ft | 19 kts | 181° |
| 2026-05-07 19:00 | -32.83389 | -68.79517 | 2317 ft | 21 kts | 181° |
| 2026-05-07 19:01 | -32.83573 | -68.79519 | 2315 ft | 28 kts | 180° |
| 2026-05-07 19:01 | -32.83760 | -68.79522 | 2319 ft | 26 kts | 181° |
| 2026-05-07 19:01 | -32.83938 | -68.79525 | 2318 ft | 25 kts | 180° |
| 2026-05-07 19:01 | -32.84094 | -68.79481 | 2319 ft | 22 kts | 157° |
| 2026-05-07 19:02 | -32.84234 | -68.79420 | 2321 ft | 20 kts | 159° |
| 2026-05-07 19:02 | -32.84289 | -68.79317 | 2322 ft | 6 kts | 66° |
| 2026-05-07 19:02 | -32.84260 | -68.79305 | 2323 ft | 6 kts | 359° |
| 2026-05-07 19:02 | -32.84125 | -68.79303 | 2322 ft | 44 kts | 1° |
| 2026-05-07 19:03 | -32.83598 | -68.79296 | 2314 ft | 106 kts | 1° |
| 2026-05-07 19:03 | -32.82684 | -68.79282 | 2403 ft | 146 kts | 0° |
| 2026-05-07 19:03 | -32.81708 | -68.79266 | 3070 ft | 138 kts | 360° |
| 2026-05-07 19:03 | -32.80738 | -68.79252 | 3668 ft | 143 kts | 0° |
| 2026-05-07 19:04 | -32.79700 | -68.79237 | 4249 ft | 161 kts | 0° |
| 2026-05-07 19:04 | -32.78457 | -68.79221 | 4644 ft | 193 kts | 1° |
| 2026-05-07 19:04 | -32.77056 | -68.79012 | 5045 ft | 216 kts | 18° |
| 2026-05-07 19:04 | -32.75735 | -68.77919 | 5317 ft | 252 kts | 55° |
| 2026-05-07 19:05 | -32.75049 | -68.75925 | 5941 ft | 268 kts | 76° |
| 2026-05-07 19:05 | -32.74641 | -68.73746 | 6831 ft | 275 kts | 80° |
| 2026-05-07 19:05 | -32.74244 | -68.71474 | 7753 ft | 282 kts | 80° |
| 2026-05-07 19:05 | -32.73828 | -68.69188 | 8674 ft | 289 kts | 80° |
| 2026-05-07 19:06 | -32.73381 | -68.66830 | 9635 ft | 295 kts | 79° |
| 2026-05-07 19:06 | -32.72409 | -68.61848 | 10696 ft | 331 kts | 79° |
| 2026-05-07 19:06 | -32.71867 | -68.59117 | 11259 ft | 346 kts | 79° |
| 2026-05-07 19:07 | -32.71306 | -68.56314 | 11964 ft | 355 kts | 80° |
| 2026-05-07 19:07 | -32.70725 | -68.53409 | 12714 ft | 363 kts | 81° |
| 2026-05-07 19:07 | -32.70408 | -68.50454 | 13448 ft | 365 kts | 97° |
| 2026-05-07 19:07 | -32.70981 | -68.47567 | 14161 ft | 354 kts | 123° |
| 2026-05-07 19:08 | -32.72406 | -68.45334 | 15020 ft | 335 kts | 147° |
| 2026-05-07 19:08 | -32.74346 | -68.43970 | 16019 ft | 314 kts | 167° |
| 2026-05-07 19:08 | -32.76450 | -68.43551 | 17004 ft | 300 kts | 185° |
| 2026-05-07 19:08 | -32.78451 | -68.43997 | 17919 ft | 295 kts | 201° |
| 2026-05-07 19:09 | -32.80229 | -68.45233 | 18673 ft | 299 kts | 217° |
| 2026-05-07 19:09 | -32.81567 | -68.47142 | 19287 ft | 312 kts | 234° |
| 2026-05-07 19:09 | -32.82389 | -68.49603 | 19912 ft | 326 kts | 247° |
| 2026-05-07 19:09 | -32.82726 | -68.52339 | 20522 ft | 340 kts | 256° |
| 2026-05-07 19:10 | -32.82811 | -68.55149 | 21132 ft | 345 kts | 258° |
| 2026-05-07 19:10 | -32.82853 | -68.58043 | 21756 ft | 348 kts | 258° |
| 2026-05-07 19:10 | -32.82898 | -68.60912 | 22339 ft | 350 kts | 258° |
| 2026-05-07 19:10 | -32.82953 | -68.63831 | 22914 ft | 353 kts | 258° |
| 2026-05-07 19:11 | -32.83014 | -68.66726 | 23479 ft | 355 kts | 258° |
| 2026-05-07 19:11 | -32.83079 | -68.69689 | 23942 ft | 359 kts | 258° |
| 2026-05-07 19:11 | -32.83147 | -68.72687 | 24368 ft | 362 kts | 258° |
| 2026-05-07 19:11 | -32.83215 | -68.75669 | 24804 ft | 365 kts | 257° |
| 2026-05-07 19:12 | -32.83287 | -68.78713 | 25262 ft | 367 kts | 257° |
| 2026-05-07 19:12 | -32.83385 | -68.81731 | 25696 ft | 369 kts | 256° |
| 2026-05-07 19:12 | -32.83496 | -68.84798 | 25931 ft | 372 kts | 256° |
| 2026-05-07 19:12 | -32.83614 | -68.87920 | 25964 ft | 380 kts | 256° |
| 2026-05-07 19:13 | -32.83730 | -68.91041 | 25949 ft | 383 kts | 257° |
| 2026-05-07 19:13 | -32.83841 | -68.94225 | 25977 ft | 384 kts | 257° |
| 2026-05-07 19:13 | -32.83951 | -68.97401 | 25952 ft | 383 kts | 257° |
| 2026-05-07 19:13 | -32.84062 | -69.00564 | 25992 ft | 382 kts | 257° |
| 2026-05-07 19:14 | -32.84173 | -69.03702 | 25975 ft | 382 kts | 257° |
| 2026-05-07 19:14 | -32.84284 | -69.06867 | 25966 ft | 382 kts | 257° |
| 2026-05-07 19:14 | -32.84391 | -69.09997 | 25968 ft | 383 kts | 257° |
| 2026-05-07 19:14 | -32.84500 | -69.13164 | 25973 ft | 383 kts | 257° |
| 2026-05-07 19:15 | -32.84611 | -69.16342 | 25962 ft | 382 kts | 256° |
| 2026-05-07 19:15 | -32.84752 | -69.19513 | 25980 ft | 382 kts | 256° |
| 2026-05-07 19:15 | -32.84901 | -69.22661 | 25982 ft | 382 kts | 256° |
| 2026-05-07 19:15 | -32.85049 | -69.25775 | 25980 ft | 382 kts | 256° |
| 2026-05-07 19:16 | -32.85198 | -69.28929 | 25945 ft | 380 kts | 256° |
| 2026-05-07 19:16 | -32.85339 | -69.32071 | 25996 ft | 379 kts | 256° |
| 2026-05-07 19:16 | -32.85486 | -69.35198 | 25994 ft | 379 kts | 256° |
| 2026-05-07 19:16 | -32.85632 | -69.38338 | 25969 ft | 378 kts | 256° |
| 2026-05-07 19:17 | -32.85781 | -69.41474 | 26016 ft | 380 kts | 256° |
| 2026-05-07 19:17 | -32.85930 | -69.44614 | 26017 ft | 380 kts | 256° |
| 2026-05-07 19:17 | -32.86072 | -69.47741 | 26013 ft | 381 kts | 256° |
| 2026-05-07 19:17 | -32.86214 | -69.50889 | 26007 ft | 381 kts | 256° |
| 2026-05-07 19:18 | -32.86355 | -69.54045 | 26013 ft | 380 kts | 256° |
| 2026-05-07 19:18 | -32.86489 | -69.57155 | 26043 ft | 380 kts | 256° |
| 2026-05-07 19:18 | -32.86631 | -69.60309 | 26026 ft | 380 kts | 256° |
| 2026-05-07 19:18 | -32.86772 | -69.63455 | 26055 ft | 380 kts | 256° |
| 2026-05-07 19:19 | -32.86911 | -69.66598 | 26056 ft | 379 kts | 256° |
| 2026-05-07 19:19 | -32.87048 | -69.69699 | 26052 ft | 378 kts | 257° |
| 2026-05-07 19:19 | -32.87184 | -69.72835 | 26071 ft | 378 kts | 257° |
| 2026-05-07 19:19 | -32.87315 | -69.75962 | 26091 ft | 378 kts | 257° |
| 2026-05-07 19:20 | -32.87450 | -69.79096 | 26084 ft | 378 kts | 256° |
| 2026-05-07 19:20 | -32.87585 | -69.82189 | 26115 ft | 379 kts | 256° |
| 2026-05-07 19:20 | -32.87720 | -69.85329 | 26096 ft | 380 kts | 257° |
| 2026-05-07 19:20 | -32.87852 | -69.88488 | 25769 ft | 380 kts | 257° |
| 2026-05-07 19:21 | -32.87976 | -69.91623 | 25300 ft | 374 kts | 257° |
| 2026-05-07 19:21 | -32.88103 | -69.94659 | 24860 ft | 370 kts | 258° |
| 2026-05-07 19:21 | -32.88236 | -69.97724 | 24396 ft | 370 kts | 258° |
| 2026-05-07 19:21 | -32.88233 | -70.00843 | 24008 ft | 385 kts | 264° |
| 2026-05-07 19:22 | -32.88004 | -70.04068 | 23302 ft | 393 kts | 267° |
| 2026-05-07 19:22 | -32.87703 | -70.07280 | 22778 ft | 387 kts | 267° |
| 2026-05-07 19:22 | -32.87402 | -70.10406 | 22311 ft | 382 kts | 267° |
| 2026-05-07 19:22 | -32.87106 | -70.13530 | 21841 ft | 379 kts | 267° |
| 2026-05-07 19:23 | -32.86817 | -70.16607 | 21578 ft | 367 kts | 267° |
| 2026-05-07 19:23 | -32.86534 | -70.19595 | 21212 ft | 360 kts | 267° |
| 2026-05-07 19:23 | -32.86258 | -70.22551 | 20779 ft | 355 kts | 266° |
| 2026-05-07 19:23 | -32.85986 | -70.25429 | 20358 ft | 344 kts | 266° |
| 2026-05-07 19:24 | -32.85725 | -70.28178 | 19924 ft | 332 kts | 266° |
| 2026-05-07 19:24 | -32.85470 | -70.30882 | 19487 ft | 324 kts | 266° |
| 2026-05-07 19:24 | -32.85224 | -70.33525 | 19076 ft | 318 kts | 266° |
| 2026-05-07 19:24 | -32.84987 | -70.36082 | 18648 ft | 311 kts | 265° |
| 2026-05-07 19:25 | -32.84753 | -70.38606 | 18190 ft | 304 kts | 265° |
| 2026-05-07 19:25 | -32.84522 | -70.41087 | 17760 ft | 298 kts | 266° |
| 2026-05-07 19:25 | -32.84296 | -70.43524 | 17343 ft | 296 kts | 266° |
| 2026-05-07 19:25 | -32.84076 | -70.45983 | 16943 ft | 302 kts | 266° |
| 2026-05-07 19:26 | -32.83846 | -70.48463 | 16557 ft | 300 kts | 268° |
| 2026-05-07 19:26 | -32.83615 | -70.50928 | 16166 ft | 299 kts | 268° |
| 2026-05-07 19:26 | -32.83385 | -70.53358 | 15785 ft | 298 kts | 269° |
| 2026-05-07 19:26 | -32.83153 | -70.55806 | 15397 ft | 296 kts | 269° |
| 2026-05-07 19:27 | -32.82922 | -70.58250 | 15020 ft | 295 kts | 269° |
| 2026-05-07 19:27 | -32.82694 | -70.60646 | 14641 ft | 294 kts | 270° |
| 2026-05-07 19:27 | -32.82464 | -70.63066 | 14261 ft | 293 kts | 270° |
| 2026-05-07 19:27 | -32.82235 | -70.65475 | 13866 ft | 292 kts | 271° |
| 2026-05-07 19:28 | -32.82115 | -70.67825 | 13649 ft | 280 kts | 261° |
| 2026-05-07 19:28 | -32.82520 | -70.69997 | 13506 ft | 260 kts | 241° |
| 2026-05-07 19:28 | -32.83473 | -70.71738 | 13385 ft | 243 kts | 224° |
| 2026-05-07 19:28 | -32.84631 | -70.73124 | 13191 ft | 235 kts | 220° |
| 2026-05-07 19:29 | -32.85824 | -70.74432 | 12896 ft | 232 kts | 220° |
| 2026-05-07 19:29 | -32.87020 | -70.75731 | 12545 ft | 233 kts | 219° |
| 2026-05-07 19:29 | -32.88223 | -70.77043 | 12137 ft | 236 kts | 219° |
| 2026-05-07 19:29 | -32.89424 | -70.78362 | 11866 ft | 235 kts | 220° |
| 2026-05-07 19:30 | -32.90633 | -70.79682 | 11591 ft | 234 kts | 218° |
| 2026-05-07 19:30 | -32.91951 | -70.80761 | 11267 ft | 231 kts | 203° |
| 2026-05-07 19:30 | -32.93480 | -70.81340 | 10915 ft | 230 kts | 189° |
| 2026-05-07 19:30 | -32.95052 | -70.81625 | 10566 ft | 232 kts | 186° |
| 2026-05-07 19:31 | -32.96663 | -70.81859 | 10229 ft | 233 kts | 185° |
| 2026-05-07 19:31 | -32.98274 | -70.82088 | 9890 ft | 233 kts | 185° |
| 2026-05-07 19:31 | -32.99883 | -70.82307 | 9540 ft | 231 kts | 183° |
| 2026-05-07 19:31 | -33.01487 | -70.82338 | 9223 ft | 230 kts | 178° |
| 2026-05-07 19:32 | -33.03069 | -70.82268 | 8927 ft | 229 kts | 176° |
| 2026-05-07 19:32 | -33.04662 | -70.82178 | 8652 ft | 228 kts | 176° |
| 2026-05-07 19:32 | -33.06246 | -70.82083 | 8372 ft | 227 kts | 176° |
| 2026-05-07 19:32 | -33.07814 | -70.81991 | 8074 ft | 226 kts | 176° |
| 2026-05-07 19:33 | -33.09398 | -70.81898 | 7762 ft | 227 kts | 176° |
| 2026-05-07 19:33 | -33.10957 | -70.81807 | 7449 ft | 228 kts | 177° |
| 2026-05-07 19:33 | -33.12557 | -70.81715 | 7152 ft | 228 kts | 177° |
| 2026-05-07 19:33 | -33.14128 | -70.81624 | 6853 ft | 228 kts | 177° |
| 2026-05-07 19:34 | -33.15719 | -70.81533 | 6467 ft | 227 kts | 178° |
| 2026-05-07 19:34 | -33.17301 | -70.81442 | 6065 ft | 226 kts | 177° |
| 2026-05-07 19:34 | -33.18851 | -70.81344 | 5737 ft | 222 kts | 177° |
| 2026-05-07 19:34 | -33.20349 | -70.81262 | 5694 ft | 207 kts | 178° |
| 2026-05-07 19:35 | -33.21749 | -70.81190 | 5491 ft | 200 kts | 178° |
| 2026-05-07 19:35 | -33.23145 | -70.81119 | 5137 ft | 202 kts | 178° |
| 2026-05-07 19:35 | -33.24569 | -70.81045 | 4577 ft | 204 kts | 178° |
| 2026-05-07 19:35 | -33.25971 | -70.80970 | 4034 ft | 202 kts | 178° |
| 2026-05-07 19:36 | -33.27353 | -70.80898 | 3589 ft | 194 kts | 178° |
| 2026-05-07 19:36 | -33.28653 | -70.80828 | 3344 ft | 177 kts | 178° |
| 2026-05-07 19:36 | -33.29802 | -70.80768 | 3097 ft | 158 kts | 178° |
| 2026-05-07 19:36 | -33.30860 | -70.80711 | 2856 ft | 143 kts | 178° |
| 2026-05-07 19:37 | -33.31805 | -70.80661 | 2666 ft | 133 kts | 178° |
| 2026-05-07 19:37 | -33.32718 | -70.80612 | 2479 ft | 129 kts | 178° |
| 2026-05-07 19:37 | -33.33609 | -70.80565 | 2308 ft | 130 kts | 178° |
| 2026-05-07 19:37 | -33.34513 | -70.80517 | 2126 ft | 129 kts | 178° |
| 2026-05-07 19:38 | -33.35404 | -70.80469 | 1958 ft | 129 kts | 178° |
| 2026-05-07 19:38 | -33.36300 | -70.80421 | 1788 ft | 128 kts | 178° |
| 2026-05-07 19:38 | -33.37195 | -70.80374 | 1615 ft | 128 kts | 178° |
| 2026-05-07 19:38 | -33.37999 | -70.80331 | 1575 ft | 95 kts | 177° |
| 2026-05-07 19:39 | -33.38481 | -70.80305 | 1576 ft | 43 kts | 177° |
| 2026-05-07 19:39 | -33.38739 | -70.80290 | 1578 ft | 33 kts | 177° |
| 2026-05-07 19:39 | -33.38966 | -70.80277 | 1577 ft | 32 kts | 176° |
| 2026-05-07 19:39 | -33.39115 | -70.80266 | 1576 ft | 32 kts | 176° |
| 2026-05-07 19:40 | -33.39390 | -70.80154 | 1572 ft | 28 kts | 148° |
| 2026-05-07 19:40 | -33.39519 | -70.80025 | 1569 ft | 25 kts | 114° |
| 2026-05-07 19:40 | -33.39526 | -70.79817 | 1568 ft | 26 kts | 88° |
| 2026-05-07 19:40 | -33.39516 | -70.79592 | 1567 ft | 28 kts | 86° |
| 2026-05-07 19:41 | -33.39508 | -70.79359 | 1567 ft | 28 kts | 87° |
| 2026-05-07 19:41 | -33.39498 | -70.79133 | 1567 ft | 27 kts | 86° |
| 2026-05-07 19:41 | -33.39496 | -70.78983 | 1567 ft | 10 kts | 111° |
| 2026-05-07 19:41 | -33.39530 | -70.78964 | 1567 ft | 4 kts | 182° |
| 2026-05-07 19:42 | -33.39563 | -70.78966 | 1567 ft | 2 kts | 183° |
| 2026-05-07 19:42 | -33.39566 | -70.78966 | 1567 ft | 0 kts | 183° |